createdAt,value
2019-05-11T00:01:53.762Z,16.37
2019-05-11T00:04:22.888Z,16.27
2019-05-11T00:06:51.084Z,14.20
2019-05-11T00:09:19.300Z,14.90
2019-05-11T00:11:48.457Z,14.90
2019-05-11T00:14:16.672Z,14.97
2019-05-11T00:16:44.879Z,15.30
2019-05-11T00:19:13.099Z,17.93
2019-05-11T00:21:41.333Z,15.93
2019-05-11T00:24:09.578Z,18.63
2019-05-11T00:26:37.748Z,16.10
2019-05-11T00:29:05.968Z,18.53
2019-05-11T00:31:34.227Z,15.10
2019-05-11T00:34:02.434Z,19.10
2019-05-11T00:36:30.612Z,20.03
2019-05-11T00:38:58.850Z,18.50
2019-05-11T00:41:27.112Z,16.40
2019-05-11T00:43:55.311Z,20.60
2019-05-11T00:46:25.461Z,17.70
2019-05-11T00:48:55.589Z,18.80
2019-05-11T00:51:24.770Z,20.33
2019-05-11T00:53:53.028Z,21.13
2019-05-11T00:56:21.244Z,19.20
2019-05-11T00:58:51.025Z,16.93
2019-05-11T01:01:19.369Z,17.90
2019-05-11T01:03:47.593Z,15.27
2019-05-11T01:06:15.776Z,16.37
2019-05-11T01:08:44.052Z,15.50
2019-05-11T01:11:12.262Z,15.07
2019-05-11T01:13:40.500Z,15.53
2019-05-11T01:16:08.714Z,14.80
2019-05-11T01:18:36.918Z,14.63
2019-05-11T01:21:05.096Z,13.97
2019-05-11T01:23:33.333Z,14.70
2019-05-11T01:26:01.596Z,17.03
2019-05-11T01:28:29.805Z,18.40
2019-05-11T01:30:58.912Z,16.80
2019-05-11T01:33:27.094Z,15.17
2019-05-11T01:35:55.361Z,15.80
2019-05-11T01:38:23.585Z,14.70
2019-05-11T01:40:58.614Z,20.20
2019-05-11T01:43:21.706Z,19.00
2019-05-11T01:45:49.914Z,19.27
2019-05-11T01:48:18.131Z,17.73
2019-05-11T01:50:47.308Z,19.60
2019-05-11T01:53:15.592Z,22.20
2019-05-11T01:55:43.811Z,18.27
2019-05-11T01:58:12.014Z,16.50
2019-05-11T02:00:40.219Z,17.53
2019-05-11T02:03:08.412Z,23.30
2019-05-11T02:05:36.607Z,17.43
2019-05-11T02:08:04.834Z,20.97
2019-05-11T02:10:33.045Z,22.27
2019-05-11T02:13:01.357Z,19.23
2019-05-11T02:15:29.641Z,22.90
2019-05-11T02:17:57.856Z,18.10
2019-05-11T02:20:26.048Z,20.67
2019-05-11T02:22:54.321Z,21.77
2019-05-11T02:25:22.552Z,22.03
2019-05-11T02:27:50.747Z,20.27
2019-05-11T02:30:19.045Z,20.20
2019-05-11T02:32:48.164Z,21.20
2019-05-11T02:35:16.389Z,20.47
2019-05-11T02:37:44.650Z,22.93
2019-05-11T02:40:13.085Z,22.57
2019-05-11T02:42:41.414Z,22.40
2019-05-11T02:45:09.918Z,24.93
2019-05-11T02:47:38.109Z,27.30
2019-05-11T02:50:06.562Z,22.57
2019-05-11T02:52:34.862Z,24.10
2019-05-11T02:55:03.220Z,21.20
2019-05-11T02:57:40.184Z,25.07
2019-05-11T03:00:09.546Z,29.20
2019-05-11T03:02:37.823Z,30.60
2019-05-11T03:05:06.824Z,23.23
2019-05-11T03:07:35.058Z,22.07
2019-05-11T03:10:03.289Z,24.83
2019-05-11T03:12:31.476Z,23.30
2019-05-11T03:14:59.675Z,24.37
2019-05-11T03:17:29.545Z,26.73
2019-05-11T03:19:57.739Z,22.83
2019-05-11T03:22:25.954Z,22.37
2019-05-11T03:24:54.177Z,21.23
2019-05-11T03:27:22.361Z,22.67
2019-05-11T03:29:51.573Z,21.70
2019-05-11T03:32:19.752Z,24.50
2019-05-11T03:34:47.941Z,28.77
2019-05-11T03:37:16.169Z,22.73
2019-05-11T03:39:44.394Z,21.90
2019-05-11T03:42:15.139Z,20.43
2019-05-11T03:44:42.522Z,23.23
2019-05-11T03:47:10.745Z,18.67
2019-05-11T03:49:38.959Z,23.77
2019-05-11T03:52:07.190Z,20.33
2019-05-11T03:54:35.463Z,20.50
2019-05-11T03:57:03.702Z,17.47
2019-05-11T03:59:31.889Z,16.80
2019-05-11T04:02:00.094Z,17.93
2019-05-11T04:04:28.401Z,20.00
2019-05-11T04:06:56.618Z,15.80
2019-05-11T04:09:24.841Z,17.20
2019-05-11T04:11:53.051Z,16.40
2019-05-11T04:14:21.260Z,20.60
2019-05-11T04:16:49.497Z,19.10
2019-05-11T04:19:17.724Z,17.20
2019-05-11T04:21:46.009Z,17.00
2019-05-11T04:24:15.153Z,20.20
2019-05-11T04:26:44.259Z,16.13
2019-05-11T04:29:12.445Z,14.10
2019-05-11T04:31:40.681Z,16.70
2019-05-11T04:34:08.866Z,18.60
2019-05-11T04:36:37.998Z,18.97
2019-05-11T04:39:06.393Z,18.90
2019-05-11T04:41:34.652Z,17.73
2019-05-11T04:44:02.841Z,14.40
2019-05-11T04:46:31.061Z,16.20
2019-05-11T04:48:59.290Z,15.87
2019-05-11T04:51:27.501Z,14.00
2019-05-11T04:53:56.603Z,14.83
2019-05-11T04:56:24.801Z,15.50
2019-05-11T04:58:52.983Z,15.50
2019-05-11T05:01:21.193Z,12.80
2019-05-11T05:03:54.083Z,13.77
2019-05-11T05:06:24.362Z,17.10
2019-05-11T05:08:49.217Z,15.00
2019-05-11T05:11:17.392Z,13.30
2019-05-11T05:13:45.609Z,14.33
2019-05-11T05:16:13.841Z,13.50
2019-05-11T05:18:42.082Z,14.60
2019-05-11T05:21:10.305Z,11.10
2019-05-11T05:23:38.552Z,9.70
2019-05-11T05:26:06.742Z,12.33
2019-05-11T05:28:34.968Z,13.87
2019-05-11T05:31:04.028Z,10.80
2019-05-11T05:33:34.168Z,10.77
2019-05-11T05:36:03.314Z,14.17
2019-05-11T05:38:32.460Z,14.90
2019-05-11T05:41:07.445Z,11.40
2019-05-11T05:43:35.649Z,10.57
2019-05-11T05:46:03.937Z,11.57
2019-05-11T05:48:32.169Z,11.53
2019-05-11T05:51:00.352Z,11.00
2019-05-11T05:53:28.558Z,11.70
2019-05-11T05:55:57.652Z,10.23
2019-05-11T05:58:25.849Z,10.23
2019-05-11T06:00:54.020Z,8.20
2019-05-11T06:03:22.211Z,11.90
2019-05-11T06:05:51.399Z,12.00
2019-05-11T06:08:22.649Z,9.70
2019-05-11T06:10:51.849Z,12.20
2019-05-11T06:13:20.021Z,8.20
2019-05-11T06:15:49.223Z,8.53
2019-05-11T06:18:17.441Z,7.37
2019-05-11T06:20:45.700Z,8.40
2019-05-11T06:23:13.867Z,7.23
2019-05-11T06:25:43.046Z,8.87
2019-05-11T06:28:11.266Z,6.83
2019-05-11T06:30:39.529Z,9.70
2019-05-11T06:33:07.765Z,8.40
2019-05-11T06:35:35.972Z,6.93
2019-05-11T06:38:04.198Z,7.97
2019-05-11T06:40:32.373Z,10.87
2019-05-11T06:43:00.543Z,7.17
2019-05-11T06:45:29.643Z,5.97
2019-05-11T06:47:57.857Z,8.83
2019-05-11T06:50:26.052Z,8.50
2019-05-11T06:52:54.284Z,7.47
2019-05-11T06:55:24.371Z,9.17
2019-05-11T06:57:53.460Z,5.50
2019-05-11T07:00:22.663Z,5.23
2019-05-11T07:02:51.809Z,6.43
2019-05-11T07:05:20.039Z,4.70
2019-05-11T07:07:48.232Z,5.23
2019-05-11T07:10:16.787Z,5.00
2019-05-11T07:12:45.071Z,6.03
2019-05-11T07:15:13.491Z,7.37
2019-05-11T07:17:41.696Z,5.73
2019-05-11T07:20:09.908Z,7.00
2019-05-11T07:22:38.121Z,7.53
2019-05-11T07:25:07.827Z,7.90
2019-05-11T07:27:36.011Z,9.90
2019-05-11T07:30:06.984Z,8.30
2019-05-11T07:32:37.907Z,6.10
2019-05-11T07:35:05.365Z,8.30
2019-05-11T07:37:33.592Z,7.70
2019-05-11T07:40:01.776Z,4.90
2019-05-11T07:42:29.996Z,7.60
2019-05-11T07:44:58.400Z,7.60
2019-05-11T07:47:27.821Z,6.20
2019-05-11T07:49:57.875Z,5.80
2019-05-11T07:52:28.586Z,6.67
2019-05-11T07:54:58.001Z,9.70
2019-05-11T07:57:28.246Z,10.27
2019-05-11T07:59:57.908Z,7.30
2019-05-11T08:02:28.011Z,7.63
2019-05-11T08:04:55.787Z,5.97
2019-05-11T08:07:23.996Z,5.10
2019-05-11T08:09:52.235Z,6.63
2019-05-11T08:12:20.509Z,7.50
2019-05-11T08:15:00.839Z,6.83
2019-05-11T08:17:18.811Z,6.30
2019-05-11T08:19:47.626Z,12.10
2019-05-11T08:22:15.980Z,6.70
2019-05-11T08:24:44.179Z,9.50
2019-05-11T08:27:12.385Z,7.87
2019-05-11T08:29:40.552Z,4.83
2019-05-11T08:32:08.736Z,4.90
2019-05-11T08:34:36.949Z,7.50
2019-05-11T08:37:05.155Z,5.83
2019-05-11T08:39:33.320Z,7.10
2019-05-11T08:42:03.385Z,7.97
2019-05-11T08:44:31.401Z,8.30
2019-05-11T08:46:59.617Z,6.43
2019-05-11T08:49:28.751Z,7.30
2019-05-11T08:51:57.999Z,5.27
2019-05-11T08:54:28.671Z,6.00
2019-05-11T08:56:58.723Z,6.97
2019-05-11T08:59:27.870Z,3.90
2019-05-11T09:01:58.548Z,9.43
2019-05-11T09:04:28.632Z,6.33
2019-05-11T09:06:58.471Z,6.30
2019-05-11T09:09:28.443Z,8.57
2019-05-11T09:11:55.885Z,5.00
2019-05-11T09:14:24.057Z,6.23
2019-05-11T09:16:52.274Z,4.90
2019-05-11T09:19:20.455Z,4.43
2019-05-11T09:21:48.651Z,6.93
2019-05-11T09:24:18.956Z,7.03
2019-05-11T09:26:47.956Z,6.73
2019-05-11T09:29:17.979Z,4.23
2019-05-11T09:31:48.527Z,5.87
2019-05-11T09:34:17.552Z,6.40
2019-05-11T09:36:48.022Z,7.40
2019-05-11T09:39:17.772Z,6.60
2019-05-11T09:41:45.810Z,8.17
2019-05-11T09:44:13.990Z,5.33
2019-05-11T09:46:42.251Z,8.97
2019-05-11T09:49:10.436Z,8.67
2019-05-11T09:51:38.991Z,4.83
2019-05-11T09:54:07.975Z,5.03
2019-05-11T09:56:38.138Z,7.43
2019-05-11T09:59:08.569Z,4.90
2019-05-11T10:01:37.838Z,4.43
2019-05-11T10:04:09.052Z,8.50
2019-05-11T10:06:38.821Z,7.00
2019-05-11T10:09:08.364Z,5.40
2019-05-11T10:11:36.611Z,5.20
2019-05-11T10:14:04.810Z,7.23
2019-05-11T10:16:33.018Z,4.20
2019-05-11T10:19:01.195Z,9.73
2019-05-11T10:21:29.376Z,8.97
2019-05-11T10:23:58.105Z,5.30
2019-05-11T10:26:27.841Z,4.17
2019-05-11T10:28:58.341Z,7.37
2019-05-11T10:31:28.480Z,11.17
2019-05-11T10:33:58.092Z,6.27
2019-05-11T10:36:28.029Z,7.70
2019-05-11T10:38:58.627Z,7.30
2019-05-11T10:41:28.269Z,6.20
2019-05-11T10:46:23.776Z,7.80
2019-05-11T10:48:52.037Z,7.33
2019-05-11T10:51:28.850Z,7.97
2019-05-11T10:53:57.684Z,6.90
2019-05-11T10:56:28.239Z,5.60
2019-05-11T10:58:58.468Z,10.87
2019-05-11T11:01:28.395Z,8.50
2019-05-11T11:03:55.863Z,5.07
2019-05-11T11:06:24.042Z,8.53
2019-05-11T11:08:52.239Z,5.10
2019-05-11T11:11:20.433Z,5.53
2019-05-11T11:13:48.723Z,5.80
2019-05-11T11:16:32.757Z,8.80
2019-05-11T11:18:48.671Z,4.43
2019-05-11T11:21:22.418Z,4.43
2019-05-11T11:23:47.998Z,6.40
2019-05-11T11:26:18.462Z,6.27
2019-05-11T11:28:47.833Z,6.77
2019-05-11T11:31:18.369Z,4.30
2019-05-11T11:33:49.172Z,5.30
2019-05-11T11:36:18.000Z,4.80
2019-05-11T11:38:47.919Z,6.63
2019-05-11T11:41:18.585Z,5.70
2019-05-11T11:43:48.214Z,6.53
2019-05-11T11:46:18.525Z,10.60
2019-05-11T11:48:48.534Z,14.57
2019-05-11T11:51:18.533Z,13.03
2019-05-11T11:53:47.757Z,9.10
2019-05-11T11:56:15.757Z,6.20
2019-05-11T11:58:44.028Z,5.37
2019-05-11T12:01:13.165Z,5.40
2019-05-11T12:03:41.381Z,7.00
2019-05-11T12:06:09.577Z,6.87
2019-05-11T12:08:38.955Z,7.67
2019-05-11T12:11:07.956Z,6.93
2019-05-11T12:13:38.209Z,6.17
2019-05-11T12:16:07.762Z,6.20
2019-05-11T12:18:37.896Z,5.40
2019-05-11T12:21:07.917Z,5.80
2019-05-11T12:23:38.106Z,5.27
2019-05-11T12:26:05.705Z,9.67
2019-05-11T12:28:33.913Z,9.60
2019-05-11T12:31:02.151Z,6.43
2019-05-11T12:33:30.380Z,7.87
2019-05-11T12:35:58.786Z,13.83
2019-05-11T12:38:27.667Z,8.17
2019-05-11T12:40:57.972Z,9.80
2019-05-11T12:43:27.718Z,10.30
2019-05-11T12:45:55.821Z,6.43
2019-05-11T12:48:24.020Z,5.73
2019-05-11T12:50:52.196Z,8.93
2019-05-11T12:53:20.418Z,8.43
2019-05-11T12:55:48.710Z,6.47
2019-05-11T12:58:18.382Z,7.20
2019-05-11T13:00:47.930Z,6.50
2019-05-11T13:03:18.465Z,8.10
2019-05-11T13:05:48.236Z,8.33
2019-05-11T13:08:18.235Z,6.73
2019-05-11T13:10:47.876Z,8.43
2019-05-11T13:13:18.011Z,8.83
2019-05-11T13:15:47.788Z,6.57
2019-05-11T13:18:15.713Z,7.20
2019-05-11T13:20:43.879Z,5.93
2019-05-11T13:23:12.060Z,7.27
2019-05-11T13:25:40.235Z,8.17
2019-05-11T13:28:08.702Z,9.03
2019-05-11T13:30:38.198Z,12.10
2019-05-11T13:33:08.535Z,8.23
2019-05-11T13:35:37.670Z,6.57
2019-05-11T13:38:05.974Z,8.83
2019-05-11T13:40:34.175Z,7.03
2019-05-11T13:43:02.411Z,7.50
2019-05-11T13:45:30.602Z,6.77
2019-05-11T13:47:59.450Z,7.47
2019-05-11T13:50:29.635Z,7.60
2019-05-11T13:52:58.397Z,8.27
2019-05-11T13:55:28.447Z,8.37
2019-05-11T13:57:57.894Z,10.47
2019-05-11T14:00:28.627Z,8.90
2019-05-11T14:02:58.440Z,9.03
2019-05-11T14:05:28.537Z,9.33
2019-05-11T14:07:58.702Z,7.80
2019-05-11T14:10:28.274Z,10.23
2019-05-11T14:12:58.174Z,12.07
2019-05-11T14:15:28.077Z,13.93
2019-05-11T14:18:05.714Z,10.50
2019-05-11T14:20:28.745Z,11.67
2019-05-11T14:22:57.856Z,8.20
2019-05-11T14:25:27.900Z,12.20
2019-05-11T14:27:55.996Z,9.10
2019-05-11T14:30:24.285Z,10.60
2019-05-11T14:32:53.458Z,11.33
2019-05-11T14:35:21.704Z,13.47
2019-05-11T14:37:49.917Z,8.60
2019-05-11T14:40:18.117Z,10.37
2019-05-11T14:42:48.765Z,12.33
2019-05-11T14:45:18.524Z,9.10
2019-05-11T14:47:47.766Z,9.93
2019-05-11T14:50:18.559Z,9.27
2019-05-11T14:52:46.049Z,10.53
2019-05-11T14:55:14.321Z,14.73
2019-05-11T14:57:44.910Z,15.37
2019-05-11T15:00:13.340Z,14.17
2019-05-11T15:02:49.175Z,16.10
2019-05-11T15:05:18.342Z,13.30
2019-05-11T15:07:47.853Z,10.63
2019-05-11T15:10:18.704Z,12.87
2019-05-11T15:12:48.649Z,13.63
2019-05-11T15:15:18.638Z,13.10
2019-05-11T15:17:49.380Z,8.83
2019-05-11T15:20:17.775Z,14.03
2019-05-11T15:22:48.631Z,12.23
2019-05-11T15:25:18.965Z,9.03
2019-05-11T15:27:48.755Z,12.73
2019-05-11T15:30:18.199Z,10.23
2019-05-11T15:32:48.172Z,10.73
2019-05-11T15:35:18.509Z,13.10
2019-05-11T15:37:47.861Z,9.33
2019-05-11T15:40:20.975Z,11.77
2019-05-11T15:42:49.403Z,10.40
2019-05-11T15:45:18.670Z,9.63
2019-05-11T15:47:48.733Z,10.63
2019-05-11T15:50:18.962Z,12.13
2019-05-11T15:52:48.706Z,10.90
2019-05-11T15:55:19.047Z,13.73
2019-05-11T15:57:48.393Z,11.77
2019-05-11T16:00:16.912Z,11.90
2019-05-11T16:02:45.128Z,9.17
2019-05-11T16:05:14.377Z,10.97
2019-05-11T16:07:42.617Z,10.73
2019-05-11T16:10:11.090Z,12.70
2019-05-11T16:12:39.390Z,11.20
2019-05-11T16:15:08.699Z,9.43
2019-05-11T16:17:40.026Z,8.30
2019-05-11T16:20:08.771Z,9.73
2019-05-11T16:22:38.517Z,9.33
2019-05-11T16:25:10.225Z,10.73
2019-05-11T16:27:38.407Z,9.90
2019-05-11T16:30:07.305Z,11.70
2019-05-11T16:32:35.545Z,10.47
2019-05-11T16:35:04.909Z,13.37
2019-05-11T16:37:33.083Z,10.03
2019-05-11T16:40:01.329Z,10.33
2019-05-11T16:42:30.657Z,9.10
2019-05-11T16:44:58.976Z,9.20
2019-05-11T16:47:28.526Z,12.27
2019-05-11T16:49:58.016Z,10.23
2019-05-11T16:52:28.061Z,10.20
2019-05-11T16:54:58.326Z,9.63
2019-05-11T16:57:27.217Z,16.23
2019-05-11T16:59:55.425Z,14.70
2019-05-11T17:02:23.631Z,12.20
2019-05-11T17:04:51.897Z,15.87
2019-05-11T17:07:20.110Z,16.53
2019-05-11T17:09:48.355Z,10.73
2019-05-11T17:12:18.032Z,12.40
2019-05-11T17:14:58.728Z,15.70
2019-05-11T17:17:27.718Z,10.93
2019-05-11T17:19:56.100Z,12.60
2019-05-11T17:22:24.309Z,14.97
2019-05-11T17:24:52.530Z,16.30
2019-05-11T17:27:20.734Z,9.97
2019-05-11T17:29:48.952Z,13.80
2019-05-11T17:32:17.780Z,18.63
2019-05-11T17:34:47.806Z,13.03
2019-05-11T17:37:18.314Z,10.60
2019-05-11T17:39:47.959Z,13.40
2019-05-11T17:42:18.192Z,16.47
2019-05-11T17:44:47.946Z,11.27
2019-05-11T17:47:18.027Z,11.67
2019-05-11T17:49:57.464Z,10.80
2019-05-11T17:52:15.683Z,10.40
2019-05-11T17:54:43.863Z,14.83
2019-05-11T17:57:12.092Z,15.60
2019-05-11T17:59:40.443Z,12.33
2019-05-11T18:02:09.520Z,17.63
2019-05-11T18:04:37.808Z,10.90
2019-05-11T18:07:05.986Z,11.80
2019-05-11T18:09:34.198Z,14.00
2019-05-11T18:12:02.397Z,10.10
2019-05-11T18:14:30.607Z,11.33
2019-05-11T18:16:59.102Z,14.50
2019-05-11T18:19:27.919Z,8.77
2019-05-11T18:21:57.743Z,11.27
2019-05-11T18:24:28.346Z,14.60
2019-05-11T18:26:55.988Z,14.00
2019-05-11T18:29:24.166Z,9.43
2019-05-11T18:31:52.351Z,14.23
2019-05-11T18:34:20.536Z,12.40
2019-05-11T18:36:48.751Z,11.00
2019-05-11T18:39:18.615Z,9.73
2019-05-11T18:41:48.387Z,16.20
2019-05-11T18:44:18.680Z,12.60
2019-05-11T18:46:48.002Z,14.43
2019-05-11T18:49:17.962Z,8.70
2019-05-11T18:51:48.374Z,12.13
2019-05-11T18:54:18.935Z,9.77
2019-05-11T18:56:48.682Z,14.60
2019-05-11T18:59:16.065Z,16.23
2019-05-11T19:01:44.249Z,12.80
2019-05-11T19:04:12.534Z,12.23
2019-05-11T19:06:40.746Z,11.47
2019-05-11T19:09:08.931Z,16.80
2019-05-11T19:11:38.273Z,13.70
2019-05-11T19:14:08.623Z,12.73
2019-05-11T19:16:38.785Z,9.90
2019-05-11T19:19:08.150Z,17.40
2019-05-11T19:21:36.501Z,14.63
2019-05-11T19:24:06.273Z,16.27
2019-05-11T19:26:34.617Z,9.37
2019-05-11T19:29:02.835Z,17.40
2019-05-11T19:31:31.096Z,13.33
2019-05-11T19:33:59.276Z,11.87
2019-05-11T19:36:27.829Z,14.53
2019-05-11T19:38:58.305Z,11.33
2019-05-11T19:41:27.784Z,12.07
2019-05-11T19:43:57.683Z,12.30
2019-05-11T19:46:27.995Z,13.73
2019-05-11T19:48:58.011Z,10.23
2019-05-11T19:51:28.934Z,11.30
2019-05-11T19:53:57.589Z,9.17
2019-05-11T19:56:25.879Z,9.10
2019-05-11T19:58:54.089Z,9.50
2019-05-11T20:01:22.293Z,12.50
2019-05-11T20:03:50.509Z,8.80
2019-05-11T20:06:18.677Z,13.60
2019-05-11T20:08:46.855Z,8.50
2019-05-11T20:11:15.066Z,10.20
2019-05-11T20:13:44.242Z,11.87
2019-05-11T20:16:12.492Z,7.17
2019-05-11T20:18:40.787Z,13.40
2019-05-11T20:21:19.134Z,16.53
2019-05-11T20:23:38.824Z,9.70
2019-05-11T20:26:08.845Z,10.03
2019-05-11T20:28:37.985Z,11.67
2019-05-11T20:31:08.026Z,10.03
2019-05-11T20:33:38.321Z,7.90
2019-05-11T20:36:08.443Z,8.70
2019-05-11T20:38:38.235Z,8.40
2019-05-11T20:41:08.139Z,11.20
2019-05-11T20:43:35.858Z,9.47
2019-05-11T20:46:04.049Z,10.00
2019-05-11T20:48:33.208Z,7.70
2019-05-11T20:51:01.413Z,8.93
2019-05-11T20:53:35.364Z,10.73
2019-05-11T20:56:03.781Z,8.77
2019-05-11T20:58:33.765Z,6.67
2019-05-11T21:01:02.078Z,8.33
2019-05-11T21:03:30.443Z,6.90
2019-05-11T21:05:58.757Z,7.70
2019-05-11T21:08:28.288Z,5.73
2019-05-11T21:10:58.180Z,5.10
2019-05-11T21:13:28.243Z,8.43
2019-05-11T21:15:56.662Z,9.77
2019-05-11T21:18:25.023Z,7.10
2019-05-11T21:20:53.247Z,4.83
2019-05-11T21:23:21.556Z,6.10
2019-05-11T21:25:49.866Z,5.27
2019-05-11T21:28:18.189Z,5.40
2019-05-11T21:30:48.115Z,6.53
2019-05-11T21:33:17.892Z,8.93
2019-05-11T21:35:46.353Z,9.07
2019-05-11T21:38:14.684Z,9.63
2019-05-11T21:40:42.995Z,7.70
2019-05-11T21:43:11.273Z,12.50
2019-05-11T21:45:40.751Z,5.40
2019-05-11T21:48:09.128Z,7.73
2019-05-11T21:50:37.855Z,8.27
2019-05-11T21:53:10.175Z,5.70
2019-05-11T21:55:37.796Z,4.37
2019-05-11T21:58:08.876Z,6.20
2019-05-11T22:00:36.027Z,9.57
2019-05-11T22:03:04.640Z,5.43
2019-05-11T22:05:32.872Z,3.70
2019-05-11T22:08:01.227Z,4.33
2019-05-11T22:10:29.555Z,2.30
2019-05-11T22:12:57.974Z,3.20
2019-05-11T22:15:28.431Z,6.33
2019-05-11T22:17:58.394Z,2.73
2019-05-11T22:20:26.122Z,2.40
2019-05-11T22:22:54.407Z,5.00
2019-05-11T22:25:22.764Z,4.27
2019-05-11T22:27:51.054Z,3.20
2019-05-11T22:30:19.314Z,4.83
2019-05-11T22:32:47.888Z,3.30
2019-05-11T22:35:18.087Z,3.87
2019-05-11T22:37:46.074Z,2.27
2019-05-11T22:40:14.302Z,3.73
2019-05-11T22:42:42.551Z,6.27
2019-05-11T22:45:10.964Z,2.83
2019-05-11T22:47:39.800Z,2.93
2019-05-11T22:50:08.303Z,5.20
2019-05-11T22:52:39.283Z,3.40
2019-05-11T22:55:11.118Z,3.47
2019-05-11T22:57:38.104Z,4.83
2019-05-11T23:00:08.286Z,3.00
2019-05-11T23:02:38.000Z,4.80
2019-05-11T23:05:08.604Z,6.90
2019-05-11T23:07:37.683Z,3.87
2019-05-11T23:10:08.586Z,3.27
2019-05-11T23:12:38.244Z,4.20
2019-05-11T23:15:13.198Z,7.17
2019-05-11T23:17:41.710Z,9.10
2019-05-11T23:20:10.319Z,4.40
2019-05-11T23:22:56.944Z,7.43
2019-05-11T23:25:18.461Z,5.27
2019-05-11T23:27:48.615Z,5.57
2019-05-11T23:30:19.684Z,6.43
2019-05-11T23:32:48.565Z,7.00
2019-05-11T23:35:18.814Z,7.13
2019-05-11T23:37:49.559Z,5.07
2019-05-11T23:40:18.256Z,6.00
2019-05-11T23:42:48.689Z,6.13
2019-05-11T23:45:18.782Z,7.63
2019-05-11T23:47:48.688Z,6.30
2019-05-11T23:50:18.883Z,3.90
2019-05-11T23:52:50.182Z,3.83
2019-05-11T23:55:19.103Z,5.27
2019-05-11T23:57:48.633Z,5.70
